Time;durP1;ratioP1;P1;durP2;ratioP2;P2;SDS_P1;SDS_P2;PMS_P1;PMS_P2;Temp;Humidity;BMP_temperature;BMP_pressure;BME280_temperature;BME280_humidity;BME280_pressure;Samples;Min_cycle;Max_cycle;Signal;HPM_P1;HPM_P2
2023/11/13 00:02:09;;;;;;;1.55;1.10;;;;;;;-145.63;63.62;39427.13;5004244;28;20030;-71
2023/11/13 00:04:35;;;;;;;1.58;0.88;;;;;;;-145.63;63.68;39407.56;5000326;28;20029;-71
2023/11/13 00:07:01;;;;;;;2.42;1.50;;;;;;;-145.63;63.30;39440.81;5003624;28;20041;-71
2023/11/13 00:09:27;;;;;;;3.63;1.75;;;;;;;-145.63;63.68;39405.59;5004012;28;20034;-71
2023/11/13 00:11:53;;;;;;;1.45;1.30;;;;;;;-145.63;63.62;39434.94;5003406;28;20034;-71
2023/11/13 00:14:19;;;;;;;1.10;1.10;;;;;;;-145.63;63.15;39399.75;5004286;28;20034;-71
2023/11/13 00:16:45;;;;;;;1.38;1.00;;;;;;;-145.63;63.15;39403.66;5004012;28;20060;-71
2023/11/13 00:19:11;;;;;;;1.17;1.08;;;;;;;-145.63;63.47;39411.47;4999993;28;20035;-71
2023/11/13 00:21:37;;;;;;;0.93;0.88;;;;;;;-145.63;62.49;39421.25;5001557;28;20311;-71
2023/11/13 00:24:05;;;;;;;1.30;1.08;;;;;;;-145.63;62.87;39368.44;5003902;28;20299;-70
2023/11/13 00:26:30;;;;;;;1.15;0.88;;;;;;;-145.63;62.55;39393.88;5003304;28;20069;-70
2023/11/13 00:28:56;;;;;;;0.73;0.73;;;;;;;-145.63;62.12;39399.75;5004089;28;20033;-70
2023/11/13 00:31:22;;;;;;;0.70;0.70;;;;;;;-145.63;62.91;39395.84;5002333;28;20026;-70
2023/11/13 00:33:48;;;;;;;0.80;0.80;;;;;;;-145.63;62.77;39413.44;4999945;28;20046;-69
2023/11/13 00:36:15;;;;;;;1.13;0.73;;;;;;;-145.63;62.97;39413.44;4998845;28;20034;-70
2023/11/13 00:38:40;;;;;;;1.65;0.70;;;;;;;-145.63;62.99;39397.78;4997889;28;20054;-71
2023/11/13 00:41:10;;;;;;;0.50;0.50;;;;;;;-145.63;62.19;39079.00;4996582;28;20048;-71
2023/11/13 00:43:36;;;;;;;0.88;0.77;;;;;;;-145.63;62.85;39413.44;5003707;28;20030;-71
2023/11/13 00:46:02;;;;;;;0.85;0.75;;;;;;;-145.63;63.08;39417.34;5002750;28;20348;-71
2023/11/13 00:48:28;;;;;;;0.70;0.70;;;;;;;-145.63;62.39;39415.38;5002559;28;20232;-70
2023/11/13 00:50:54;;;;;;;1.70;0.80;;;;;;;-145.63;62.60;39413.44;5003347;28;20034;-73
2023/11/13 00:53:19;;;;;;;1.63;0.77;;;;;;;-145.63;63.45;39421.25;5002359;28;20026;-72
2023/11/13 00:55:45;;;;;;;1.33;0.60;;;;;;;-145.63;62.86;39405.59;4985890;28;20322;-73
2023/11/13 00:58:10;;;;;;;1.20;0.90;;;;;;;-145.63;63.41;39378.22;5001359;28;20069;-73
2023/11/13 01:00:36;;;;;;;1.45;1.00;;;;;;;-145.63;63.37;39397.78;5003030;28;20086;-74
2023/11/13 01:03:02;;;;;;;2.17;1.00;;;;;;;-145.63;64.01;39427.13;5002929;28;20027;-74
2023/11/13 01:05:28;;;;;;;0.85;0.85;;;;;;;-145.63;63.99;39427.13;5003216;28;20026;-71
2023/11/13 01:07:53;;;;;;;2.85;0.80;;;;;;;-145.63;63.79;39442.78;5001418;28;20037;-73
2023/11/13 01:10:19;;;;;;;1.67;0.80;;;;;;;-145.63;63.06;39448.63;5003044;28;20026;-72
2023/11/13 01:12:45;;;;;;;1.77;1.00;;;;;;;-145.63;63.43;39423.22;5001895;28;20106;-73
2023/11/13 01:15:12;;;;;;;1.08;0.88;;;;;;;-145.63;63.88;39438.84;5003094;28;20025;-72
2023/11/13 01:17:38;;;;;;;1.30;1.00;;;;;;;-145.63;63.87;39429.06;5002925;28;20053;-72
2023/11/13 01:20:05;;;;;;;1.02;0.85;;;;;;;-145.63;64.32;39417.34;5002945;28;20030;-72
2023/11/13 01:22:32;;;;;;;1.10;0.98;;;;;;;-145.63;64.41;39427.13;4982241;28;20026;-72
2023/11/13 01:24:58;;;;;;;0.82;0.82;;;;;;;-145.63;64.33;39380.19;4985897;28;20342;-74
2023/11/13 01:27:24;;;;;;;0.95;0.88;;;;;;;-145.63;64.26;39423.22;5003952;28;20081;-73
2023/11/13 01:29:49;;;;;;;1.67;0.90;;;;;;;-145.63;64.08;39395.84;5003138;28;20018;-73
2023/11/13 01:32:16;;;;;;;1.02;0.95;;;;;;;-145.63;64.36;39431.03;5002483;28;20029;-74
2023/11/13 01:34:42;;;;;;;0.80;0.80;;;;;;;-145.63;63.49;39405.59;4993818;28;20034;-75
2023/11/13 01:37:08;;;;;;;0.50;0.50;;;;;;;-145.63;63.28;39415.38;5001278;28;20046;-74
2023/11/13 01:39:34;;;;;;;0.40;0.40;;;;;;;-145.63;63.37;39421.25;5002885;28;20085;-74
2023/11/13 01:42:00;;;;;;;1.77;0.43;;;;;;;-145.63;63.06;39421.25;4998945;28;20026;-72
2023/11/13 01:44:26;;;;;;;0.50;0.50;;;;;;;-145.63;62.82;39419.31;5002663;28;20033;-72
2023/11/13 01:46:52;;;;;;;2.50;0.77;;;;;;;-145.63;62.39;39423.22;5002051;28;20022;-71
2023/11/13 01:49:19;;;;;;;0.30;0.30;;;;;;;-145.63;62.76;39370.41;5002442;28;20022;-71
2023/11/13 01:51:47;;;;;;;0.55;0.50;;;;;;;-145.63;62.71;39450.59;5002673;28;20037;-70
2023/11/13 01:54:15;;;;;;;0.40;0.40;;;;;;;-145.63;63.10;39417.34;5001250;28;20037;-73
2023/11/13 01:56:43;;;;;;;0.50;0.50;;;;;;;-145.63;62.67;39413.44;5002225;28;20053;-71
2023/11/13 01:59:12;;;;;;;0.55;0.50;;;;;;;-145.63;62.34;39200.25;5001193;28;20026;-75
2023/11/13 02:01:38;;;;;;;0.52;0.40;;;;;;;-145.63;62.81;39411.47;5002566;28;20034;-74
2023/11/13 02:04:04;;;;;;;0.50;0.50;;;;;;;-145.63;62.85;39415.38;5002248;28;20034;-71
2023/11/13 02:06:30;;;;;;;0.47;0.47;;;;;;;-145.63;62.62;39397.78;5001249;28;20494;-70
2023/11/13 02:08:56;;;;;;;2.05;0.50;;;;;;;-145.63;63.05;39421.25;5003903;28;20042;-70
2023/11/13 02:11:22;;;;;;;0.40;0.40;;;;;;;-145.63;63.20;39405.59;4988789;28;20026;-71
2023/11/13 02:13:49;;;;;;;3.33;1.75;;;;;;;-145.63;62.53;39415.38;5006303;28;20027;-73
2023/11/13 02:16:15;;;;;;;0.43;0.43;;;;;;;-145.63;62.54;39438.84;5006126;28;20114;-73
2023/11/13 02:18:41;;;;;;;0.50;0.50;;;;;;;-145.63;62.89;38973.41;5005111;28;20042;-73
2023/11/13 02:21:07;;;;;;;0.52;0.52;;;;;;;-145.63;63.33;39415.38;5006115;28;20278;-73
2023/11/13 02:23:32;;;;;;;0.50;0.50;;;;;;;-145.63;62.29;39409.53;5005053;28;20026;-73
2023/11/13 02:26:02;;;;;;;3.40;1.92;;;;;;;-145.63;63.45;39485.78;5004907;28;20086;-72
2023/11/13 02:28:27;;;;;;;0.63;0.63;;;;;;;-145.63;62.72;39407.56;5005737;28;20026;-73
2023/11/13 02:30:53;;;;;;;0.73;0.60;;;;;;;-145.63;63.24;39380.19;5006200;28;20033;-72
2023/11/13 02:33:19;;;;;;;0.60;0.60;;;;;;;-145.63;62.58;39425.16;5002693;28;20038;-73
2023/11/13 02:35:46;;;;;;;0.50;0.50;;;;;;;-145.63;62.54;39393.88;5006730;28;20026;-71
2023/11/13 02:38:12;;;;;;;0.45;0.45;;;;;;;-145.63;61.85;39423.22;4995534;28;20101;-71
2023/11/13 02:40:37;;;;;;;1.95;0.47;;;;;;;-145.63;61.36;39436.91;4988593;28;20026;-70
2023/11/13 02:43:03;;;;;;;0.40;0.40;;;;;;;-145.63;61.42;39421.25;5005733;28;20027;-71
2023/11/13 02:45:29;;;;;;;0.45;0.40;;;;;;;-145.63;61.73;39415.38;5004533;28;20064;-70
2023/11/13 02:47:55;;;;;;;0.57;0.50;;;;;;;-145.63;61.71;39419.31;5006017;28;20033;-70
2023/11/13 02:50:21;;;;;;;0.47;0.40;;;;;;;-145.63;60.94;39405.59;5015999;28;20030;-72
2023/11/13 02:52:47;;;;;;;0.60;0.50;;;;;;;-145.63;60.47;39399.75;4998152;28;20430;-71
2023/11/13 02:55:13;;;;;;;3.25;0.70;;;;;;;-145.63;60.59;39391.91;4998100;28;20104;-72
2023/11/13 02:57:39;;;;;;;0.30;0.30;;;;;;;-145.63;59.88;39419.31;5004642;28;20057;-73
2023/11/13 03:00:06;;;;;;;0.50;0.50;;;;;;;-145.63;60.54;39407.56;5004299;28;20026;-71
2023/11/13 03:02:33;;;;;;;0.50;0.50;;;;;;;-145.63;60.30;39401.69;5005392;28;20041;-72
2023/11/13 03:04:59;;;;;;;0.40;0.40;;;;;;;-145.63;59.54;39380.19;5004218;28;20026;-72
2023/11/13 03:07:25;;;;;;;0.65;0.65;;;;;;;-145.63;60.61;39409.53;5004101;28;20160;-72
2023/11/13 03:09:53;;;;;;;0.50;0.50;;;;;;;-145.63;59.59;39192.44;5004879;28;20085;-71
2023/11/13 03:12:21;;;;;;;2.15;0.60;;;;;;;-145.63;60.28;39399.75;5005319;28;20052;-71
2023/11/13 03:14:48;;;;;;;0.35;0.35;;;;;;;-145.63;60.59;39427.13;5005096;28;20022;-72
2023/11/13 03:17:14;;;;;;;0.40;0.40;;;;;;;-145.63;60.18;39431.03;5005207;28;20034;-73
2023/11/13 03:19:40;;;;;;;0.70;0.70;;;;;;;-145.63;60.08;39393.88;5000628;28;20094;-73
2023/11/13 03:22:06;;;;;;;0.55;0.55;;;;;;;-145.63;60.12;39425.16;4987458;28;20203;-72
2023/11/13 03:24:32;;;;;;;0.60;0.60;;;;;;;-145.63;60.25;39399.75;5005209;28;20030;-73
2023/11/13 03:26:57;;;;;;;0.93;0.88;;;;;;;-145.63;60.05;39405.59;5004912;28;20076;-71
2023/11/13 03:29:25;;;;;;;1.08;0.90;;;;;;;-145.63;60.53;39407.56;5004765;28;20057;-70
2023/11/13 03:31:51;;;;;;;1.70;1.20;;;;;;;-145.63;60.13;39395.84;5003102;28;20073;-71
2023/11/13 03:34:20;;;;;;;2.70;1.30;;;;;;;-145.63;60.60;39389.97;4993669;28;20303;-70
2023/11/13 03:36:46;;;;;;;2.00;1.00;;;;;;;-145.63;60.66;39517.09;5002950;28;20041;-70
2023/11/13 03:39:12;;;;;;;2.15;1.00;;;;;;;-145.63;60.52;39391.91;4986501;28;20034;-70
2023/11/13 03:41:38;;;;;;;1.55;1.02;;;;;;;-145.63;60.92;39393.88;5000237;28;20110;-70
2023/11/13 03:44:04;;;;;;;0.90;0.90;;;;;;;-145.63;61.10;39362.59;4994162;28;20342;-70
2023/11/13 03:46:30;;;;;;;1.30;1.20;;;;;;;-145.63;61.37;39460.38;4998891;28;20090;-70
2023/11/13 03:48:56;;;;;;;1.33;0.98;;;;;;;-145.63;60.67;39397.78;5001775;28;20386;-70
2023/11/13 03:51:25;;;;;;;1.83;0.98;;;;;;;-145.63;60.92;39391.91;5002433;28;20185;-71
2023/11/13 03:53:52;;;;;;;0.90;0.90;;;;;;;-145.63;61.50;39401.69;5001606;28;20378;-69
2023/11/13 03:56:20;;;;;;;1.35;1.10;;;;;;;-145.63;60.45;39407.56;5004097;28;20026;-69
2023/11/13 03:58:46;;;;;;;1.35;1.20;;;;;;;-145.63;60.96;39395.84;5000037;28;20033;-70
2023/11/13 04:01:12;;;;;;;2.22;1.20;;;;;;;-145.63;61.12;39407.56;4990624;28;20030;-69
2023/11/13 04:03:38;;;;;;;1.08;0.98;;;;;;;-145.63;60.65;39423.22;4985261;28;20203;-70
2023/11/13 04:06:04;;;;;;;1.20;1.10;;;;;;;-145.63;61.33;39384.09;4984456;28;20053;-70
2023/11/13 04:08:29;;;;;;;1.02;1.02;;;;;;;-145.63;60.78;39386.06;4993251;28;20038;-70
2023/11/13 04:10:55;;;;;;;1.63;1.33;;;;;;;-145.63;60.69;39403.66;5002517;28;20758;-70
2023/11/13 04:13:23;;;;;;;1.60;1.27;;;;;;;-145.63;61.15;39393.88;5004117;28;20022;-71
2023/11/13 04:15:49;;;;;;;1.40;1.20;;;;;;;-145.63;60.29;39399.75;5001589;28;20029;-71
2023/11/13 04:18:15;;;;;;;1.25;1.15;;;;;;;-145.63;60.43;39431.03;4995634;28;20231;-67
2023/11/13 04:20:41;;;;;;;1.77;1.00;;;;;;;-145.63;60.17;39374.31;4997175;28;20333;-70
2023/11/13 04:23:07;;;;;;;1.30;1.20;;;;;;;-145.63;60.14;39251.09;5003667;28;20093;-70
2023/11/13 04:25:34;;;;;;;1.70;1.40;;;;;;;-145.63;60.46;39458.41;5000346;28;20377;-70
2023/11/13 04:28:00;;;;;;;1.23;1.15;;;;;;;-145.63;61.19;39395.84;4994901;28;20061;-71
2023/11/13 04:30:27;;;;;;;1.50;1.40;;;;;;;-145.63;60.83;39403.66;5002393;28;20089;-71
2023/11/13 04:32:52;;;;;;;1.70;1.27;;;;;;;-145.63;61.16;39399.75;5002704;28;20046;-72
2023/11/13 04:35:18;;;;;;;1.30;1.20;;;;;;;-145.63;61.83;39448.63;4990489;28;20049;-69
2023/11/13 04:37:45;;;;;;;2.28;1.45;;;;;;;-145.63;61.80;39434.94;4976567;28;20034;-68
2023/11/13 04:40:11;;;;;;;1.60;1.40;;;;;;;-145.63;61.56;39431.03;4998736;28;20022;-70
2023/11/13 04:42:37;;;;;;;1.60;1.40;;;;;;;-145.63;62.46;39409.53;5002128;28;20022;-69
2023/11/13 04:45:04;;;;;;;1.90;1.60;;;;;;;-145.63;62.55;39401.69;4999366;28;20081;-69
2023/11/13 04:47:31;;;;;;;1.30;1.20;;;;;;;-145.63;62.68;39511.22;5001267;28;20033;-69
2023/11/13 04:49:58;;;;;;;1.60;1.50;;;;;;;-145.63;62.72;39468.19;4989010;28;20027;-70
2023/11/13 04:52:23;;;;;;;2.28;1.60;;;;;;;-145.63;62.89;39384.09;4996973;28;20374;-72
2023/11/13 04:54:50;;;;;;;1.50;1.40;;;;;;;-145.63;62.70;39401.69;4966449;28;20334;-70
2023/11/13 04:57:16;;;;;;;1.52;1.42;;;;;;;-145.63;63.10;39397.78;4994699;28;20130;-70
2023/11/13 04:59:42;;;;;;;1.30;1.20;;;;;;;-145.63;62.83;39487.75;4994072;28;20306;-70
2023/11/13 05:02:09;;;;;;;1.33;1.15;;;;;;;-145.63;62.56;39415.38;4996771;28;20037;-69
2023/11/13 05:04:34;;;;;;;1.55;1.40;;;;;;;-145.63;63.14;39429.06;5001938;28;20033;-69
2023/11/13 05:07:00;;;;;;;1.95;1.23;;;;;;;-145.63;63.36;39411.47;5002703;28;20034;-68
2023/11/13 05:09:26;;;;;;;1.80;1.40;;;;;;;-145.63;63.50;39411.47;4998502;28;20240;-70
2023/11/13 05:11:52;;;;;;;1.40;1.30;;;;;;;-145.63;63.18;39405.59;4995623;28;20142;-69
2023/11/13 05:14:18;;;;;;;1.55;1.30;;;;;;;-145.63;62.89;39403.66;4995106;28;20033;-70
2023/11/13 05:16:44;;;;;;;1.83;1.27;;;;;;;-145.63;63.38;39415.38;5003018;28;20033;-70
2023/11/13 05:19:10;;;;;;;1.77;1.20;;;;;;;-145.63;63.32;39427.13;5001433;28;20042;-70
2023/11/13 05:21:35;;;;;;;2.75;1.25;;;;;;;-145.63;63.48;39438.84;5001691;28;20202;-69
2023/11/13 05:24:01;;;;;;;1.83;1.13;;;;;;;-145.63;63.28;39409.53;5002576;28;20030;-69
2023/11/13 05:26:27;;;;;;;2.08;1.30;;;;;;;-145.63;63.34;39389.97;5000897;28;20034;-69
2023/11/13 05:28:54;;;;;;;1.73;1.60;;;;;;;-145.63;64.04;39397.78;4994595;28;20061;-69
2023/11/13 05:31:20;;;;;;;2.28;1.27;;;;;;;-145.63;63.61;39397.78;5001550;28;20299;-69
2023/11/13 05:33:46;;;;;;;2.38;1.10;;;;;;;-145.63;63.57;39462.31;5002191;28;20046;-70
2023/11/13 05:36:12;;;;;;;2.05;1.48;;;;;;;-145.63;63.48;39411.47;5002588;28;20038;-69
2023/11/13 05:38:42;;;;;;;1.55;1.45;;;;;;;-145.63;63.53;39442.78;5002567;28;20029;-70
2023/11/13 05:41:07;;;;;;;1.48;1.35;;;;;;;-145.63;63.76;39413.44;5002671;28;20053;-69
2023/11/13 05:43:34;;;;;;;1.40;1.30;;;;;;;-145.63;63.84;39405.59;5001658;28;20089;-69
2023/11/13 05:46:00;;;;;;;1.83;1.45;;;;;;;-145.63;64.17;39382.13;5001219;28;20018;-70
2023/11/13 05:48:27;;;;;;;1.55;1.40;;;;;;;-145.63;64.29;39411.47;5002285;28;20377;-70
2023/11/13 05:50:52;;;;;;;3.30;1.52;;;;;;;-145.63;64.65;39434.94;5002206;28;20030;-69
2023/11/13 05:53:19;;;;;;;2.88;1.20;;;;;;;-145.63;64.37;39407.56;5002045;28;20033;-70
2023/11/13 05:55:45;;;;;;;3.85;1.45;;;;;;;-145.63;64.65;39413.44;4998726;28;20253;-71
2023/11/13 05:58:11;;;;;;;1.85;1.42;;;;;;;-145.63;64.20;39415.38;4990687;28;20026;-70
2023/11/13 06:00:37;;;;;;;1.98;1.52;;;;;;;-145.63;64.20;39423.22;5001235;28;20073;-69
2023/11/13 06:03:02;;;;;;;2.25;1.60;;;;;;;-145.63;64.77;39415.38;4997241;28;20026;-69
2023/11/13 06:05:28;;;;;;;2.40;1.40;;;;;;;-145.63;64.27;39401.69;5000786;28;20030;-70
2023/11/13 06:07:54;;;;;;;2.70;1.50;;;;;;;-145.63;64.81;39417.34;4999594;28;20030;-70
2023/11/13 06:10:21;;;;;;;2.97;1.40;;;;;;;-145.63;64.17;39208.06;5000638;28;20050;-70
2023/11/13 06:12:46;;;;;;;2.20;1.75;;;;;;;-145.63;64.36;39327.38;4999624;28;20061;-69
2023/11/13 06:15:13;;;;;;;3.40;1.70;;;;;;;-145.63;64.48;39370.41;4999510;28;20026;-69
2023/11/13 06:17:40;;;;;;;1.98;1.30;;;;;;;-145.63;63.62;39413.44;4999966;28;20355;-70
2023/11/13 06:20:07;;;;;;;1.88;1.40;;;;;;;-145.63;62.89;39462.31;4985356;28;20039;-70
2023/11/13 06:22:32;;;;;;;1.60;1.50;;;;;;;-145.63;63.57;39389.97;4990019;28;20256;-70
2023/11/13 06:24:59;;;;;;;2.33;1.10;;;;;;;-145.63;63.16;39407.56;4996243;28;20045;-69
2023/11/13 06:27:25;;;;;;;1.30;1.20;;;;;;;-145.63;63.28;39415.38;4997616;28;20064;-69
2023/11/13 06:29:50;;;;;;;2.58;1.38;;;;;;;-145.63;63.31;39415.38;4990966;28;20118;-69
2023/11/13 06:32:17;;;;;;;3.45;1.60;;;;;;;-145.63;63.82;39321.50;5001140;28;20062;-68
2023/11/13 06:34:43;;;;;;;2.97;1.48;;;;;;;-145.63;64.00;39391.91;4991518;28;20049;-67
2023/11/13 06:37:09;;;;;;;2.60;1.38;;;;;;;-145.63;63.05;39421.25;5001497;28;20357;-69
2023/11/13 06:39:35;;;;;;;1.23;1.00;;;;;;;-145.63;62.18;39393.88;4986470;28;20030;-69
2023/11/13 06:42:01;;;;;;;1.55;1.17;;;;;;;-145.63;62.75;39419.31;4994964;28;20093;-69
2023/11/13 06:44:27;;;;;;;1.02;0.90;;;;;;;-145.63;61.67;39425.16;4993286;28;20018;-68
2023/11/13 06:46:53;;;;;;;0.60;0.60;;;;;;;-145.63;61.07;39409.53;5002000;28;20026;-67
2023/11/13 06:49:19;;;;;;;1.17;0.80;;;;;;;-145.63;61.53;39419.31;5000319;28;20022;-69
2023/11/13 06:51:45;;;;;;;0.80;0.60;;;;;;;-145.63;61.00;39413.44;4998935;28;20077;-68
2023/11/13 06:54:11;;;;;;;1.40;0.70;;;;;;;-145.63;60.80;39382.13;5002171;28;20034;-69
2023/11/13 06:56:37;;;;;;;1.00;0.60;;;;;;;-145.63;61.05;39409.53;5004154;28;20034;-69
2023/11/13 06:59:03;;;;;;;1.42;0.80;;;;;;;-145.63;60.48;39386.06;5004797;28;20032;-69
2023/11/13 07:01:38;;;;;;;0.82;0.70;;;;;;;-145.63;60.16;39434.94;5004945;28;20070;-69
2023/11/13 07:04:04;;;;;;;1.58;1.30;;;;;;;-145.63;60.70;39407.56;4991646;28;20030;-69
2023/11/13 07:06:31;;;;;;;1.17;0.80;;;;;;;-145.63;61.14;39403.66;5005085;28;20053;-69
2023/11/13 07:08:58;;;;;;;1.85;0.70;;;;;;;-145.63;61.35;39411.47;5005245;28;20018;-69
2023/11/13 07:11:24;;;;;;;2.38;1.48;;;;;;;-145.63;60.72;39395.84;5005148;28;20305;-68
2023/11/13 07:13:50;;;;;;;0.80;0.80;;;;;;;-145.63;61.00;39403.66;5005434;28;20022;-70
2023/11/13 07:16:15;;;;;;;1.15;1.00;;;;;;;-145.63;60.65;38994.91;5004282;28;20142;-68
2023/11/13 07:18:41;;;;;;;1.52;1.00;;;;;;;-145.63;61.69;39409.53;5005425;28;20030;-68
2023/11/13 07:21:07;;;;;;;2.78;1.40;;;;;;;-145.63;60.96;39425.16;5003773;28;20026;-68
2023/11/13 07:23:32;;;;;;;0.65;0.63;;;;;;;-145.63;61.21;39395.84;5001113;28;20034;-68
2023/11/13 07:25:58;;;;;;;2.30;0.98;;;;;;;-145.63;61.85;39391.91;4987618;28;20026;-68
2023/11/13 07:28:24;;;;;;;1.55;0.77;;;;;;;-145.63;61.70;39407.56;5004925;28;20034;-68
2023/11/13 07:30:51;;;;;;;2.67;0.70;;;;;;;-145.63;60.95;39419.31;5004997;28;20034;-68
2023/11/13 07:33:17;;;;;;;0.82;0.77;;;;;;;-145.63;60.50;39415.38;5003685;28;20038;-68
2023/11/13 07:35:43;;;;;;;0.90;0.80;;;;;;;-145.63;60.59;39401.69;4999312;28;20243;-68
2023/11/13 07:38:09;;;;;;;0.70;0.70;;;;;;;-145.63;60.65;39393.88;4993220;28;20026;-68
2023/11/13 07:40:38;;;;;;;1.67;0.90;;;;;;;-145.63;61.14;39431.03;5001474;28;20031;-69
2023/11/13 07:43:08;;;;;;;1.48;0.85;;;;;;;-145.63;60.98;39470.16;4985190;28;20026;-69
2023/11/13 07:45:34;;;;;;;1.90;0.90;;;;;;;-145.63;60.77;39438.84;5003730;28;20041;-68
2023/11/13 07:48:00;;;;;;;1.88;0.95;;;;;;;-145.63;60.61;39382.13;4999932;28;20331;-68
2023/11/13 07:50:27;;;;;;;0.85;0.80;;;;;;;-145.63;60.18;39397.78;4998260;28;20077;-68
2023/11/13 07:52:53;;;;;;;1.80;0.90;;;;;;;-145.63;59.78;39438.84;4992178;28;20044;-69
2023/11/13 07:55:19;;;;;;;1.77;1.05;;;;;;;-145.63;60.72;39433.00;4986054;28;20034;-69
2023/11/13 07:57:45;;;;;;;0.85;0.80;;;;;;;-145.63;59.65;39401.69;5004830;28;20101;-68
2023/11/13 08:00:13;;;;;;;1.20;0.88;;;;;;;-145.63;60.02;39403.66;5010495;28;20041;-68
2023/11/13 08:02:42;;;;;;;1.75;0.63;;;;;;;-145.63;59.69;39460.38;4992611;28;20167;-68
2023/11/13 08:05:11;;;;;;;0.70;0.70;;;;;;;-145.63;59.49;39427.13;4992273;28;20201;-69
2023/11/13 08:07:39;;;;;;;2.05;1.10;;;;;;;-145.63;59.63;39415.38;5000605;28;20255;-68
2023/11/13 08:10:13;;;;;;;2.10;0.77;;;;;;;-145.63;59.20;39391.91;4992682;28;20035;-67
2023/11/13 08:12:49;;;;;;;3.83;1.08;;;;;;;-145.63;59.96;39452.53;4991314;28;20090;-69
2023/11/13 08:15:16;;;;;;;1.17;0.93;;;;;;;-145.63;59.14;39399.75;5000973;28;20171;-68
2023/11/13 08:17:43;;;;;;;1.65;0.65;;;;;;;-145.63;59.24;39388.00;5004219;28;20085;-69
2023/11/13 08:20:13;;;;;;;0.60;0.60;;;;;;;-145.63;58.51;39415.38;4995498;28;20034;-68
2023/11/13 08:22:41;;;;;;;1.10;1.00;;;;;;;-145.63;59.04;39423.22;4987757;28;20093;-68
2023/11/13 08:25:11;;;;;;;0.80;0.80;;;;;;;-145.63;57.86;39401.69;5000809;28;20033;-69
2023/11/13 08:27:44;;;;;;;1.58;0.80;;;;;;;-145.63;58.14;39399.75;5002410;28;20235;-68
2023/11/13 08:30:14;;;;;;;2.88;1.00;;;;;;;-145.63;57.84;39384.09;4998493;28;20310;-68
2023/11/13 08:32:43;;;;;;;2.55;1.00;;;;;;;-145.63;58.32;39397.78;4993576;28;20089;-68
2023/11/13 08:35:13;;;;;;;1.95;1.02;;;;;;;-145.63;58.36;39433.00;4986724;28;20042;-68
2023/11/13 08:37:43;;;;;;;1.23;0.80;;;;;;;-145.63;57.34;39397.78;5000409;28;20026;-67
2023/11/13 08:40:17;;;;;;;1.33;0.95;;;;;;;-145.63;57.45;39393.88;4995615;28;20114;-68
2023/11/13 08:42:46;;;;;;;2.65;0.80;;;;;;;-145.63;57.66;39401.69;4995343;28;20054;-68
2023/11/13 08:45:15;;;;;;;0.80;0.80;;;;;;;-145.63;56.83;39386.06;5000862;28;20211;-67
2023/11/13 08:47:53;;;;;;;0.77;0.70;;;;;;;-145.63;56.92;39419.31;5003779;28;20072;-68
2023/11/13 08:50:20;;;;;;;0.52;0.52;;;;;;;-145.63;56.93;39429.06;4991693;28;20037;-69
2023/11/13 08:52:49;;;;;;;0.80;0.80;;;;;;;-145.63;56.85;39403.66;5000500;28;20119;-68
2023/11/13 08:55:19;;;;;;;1.70;0.85;;;;;;;-145.63;57.24;39376.28;5003204;28;20037;-69
2023/11/13 08:57:46;;;;;;;1.08;0.98;;;;;;;-145.63;57.86;38846.28;5002686;28;20028;-68
2023/11/13 09:00:20;;;;;;;1.10;0.60;;;;;;;-145.63;57.26;39163.09;5001005;28;20069;-69
2023/11/13 09:02:54;;;;;;;1.40;1.00;;;;;;;-145.63;56.82;39374.31;5000487;28;20024;-68
2023/11/13 09:05:25;;;;;;;2.25;0.80;;;;;;;-145.63;56.63;39413.44;5000690;28;20029;-68
2023/11/13 09:07:53;;;;;;;1.43;0.83;;;;;;;-145.63;56.35;39411.47;4999193;28;20029;-68
2023/11/13 09:10:21;;;;;;;0.75;0.65;;;;;;;-145.63;56.16;39374.31;4993945;28;20420;-68
2023/11/13 09:12:47;;;;;;;1.10;1.00;;;;;;;-145.63;56.21;39391.91;4996679;28;20295;-69
2023/11/13 09:15:18;;;;;;;2.75;0.75;;;;;;;-145.63;56.43;39395.84;4994247;28;20038;-68
2023/11/13 09:17:45;;;;;;;3.80;0.85;;;;;;;-145.63;56.61;39399.75;4991684;28;20023;-68
2023/11/13 09:20:20;;;;;;;1.50;0.60;;;;;;;-145.63;56.82;39358.66;4991222;28;20101;-69
2023/11/13 09:22:50;;;;;;;1.38;0.82;;;;;;;-145.63;56.68;39319.56;4993022;28;20307;-69
2023/11/13 09:25:17;;;;;;;2.00;1.00;;;;;;;-145.63;56.23;39344.97;5001151;28;20041;-69
2023/11/13 09:27:46;;;;;;;1.00;0.70;;;;;;;-145.63;56.86;39321.50;4992262;28;20030;-69
2023/11/13 09:30:20;;;;;;;2.10;1.02;;;;;;;-145.63;55.82;39341.06;5002792;28;20045;-67
2023/11/13 09:32:48;;;;;;;2.15;0.82;;;;;;;-145.63;57.24;39362.59;4995290;28;20054;-69
2023/11/13 09:35:20;;;;;;;6.65;0.80;;;;;;;-145.63;56.58;39372.34;4995216;28;20041;-69
2023/11/13 09:37:48;;;;;;;0.93;0.93;;;;;;;-145.63;56.36;39372.34;4995925;28;20049;-69
2023/11/13 09:40:26;;;;;;;1.38;0.70;;;;;;;-145.63;56.82;39364.53;4993568;28;20022;-69
2023/11/13 09:42:53;;;;;;;2.65;1.00;;;;;;;-145.63;55.47;39344.97;4995885;28;20030;-69
2023/11/13 09:45:20;;;;;;;3.97;1.40;;;;;;;-145.63;55.82;39348.88;4995160;28;20053;-70
2023/11/13 09:47:49;;;;;;;1.00;0.73;;;;;;;-145.63;55.29;39358.66;4997596;28;20050;-69
2023/11/13 09:50:16;;;;;;;1.63;0.73;;;;;;;-145.63;55.49;39391.91;4994785;28;20023;-70
2023/11/13 09:52:50;;;;;;;1.02;0.90;;;;;;;-145.63;55.41;39388.00;4986667;28;20041;-69
2023/11/13 09:55:23;;;;;;;2.03;0.80;;;;;;;-145.63;55.28;39397.78;5002588;28;20030;-68
2023/11/13 09:57:53;;;;;;;1.40;0.90;;;;;;;-145.63;55.38;39368.44;4990685;28;20030;-68
2023/11/13 10:00:23;;;;;;;2.47;0.70;;;;;;;-145.63;54.93;39350.84;5002581;28;20045;-70
2023/11/13 10:02:51;;;;;;;1.38;0.77;;;;;;;-145.63;55.33;39356.72;5001518;28;20077;-69
2023/11/13 10:05:20;;;;;;;1.45;0.75;;;;;;;-145.63;55.77;39344.97;4992729;28;20039;-68
2023/11/13 10:07:47;;;;;;;1.05;0.90;;;;;;;-145.63;55.94;39419.31;4997582;28;20034;-67
2023/11/13 10:10:23;;;;;;;2.03;0.80;;;;;;;-145.63;55.70;39362.59;4998175;28;20030;-69
2023/11/13 10:12:50;;;;;;;2.63;0.95;;;;;;;-145.63;55.76;39366.50;4982876;28;20491;-69
2023/11/13 10:15:27;;;;;;;0.60;0.60;;;;;;;-145.63;55.81;39352.81;4990881;28;20022;-69
2023/11/13 10:17:54;;;;;;;0.70;0.70;;;;;;;-145.63;54.49;39388.00;4990499;28;20114;-68
2023/11/13 10:20:20;;;;;;;1.67;1.10;;;;;;;-145.63;54.92;39427.13;4991208;28;20030;-69
2023/11/13 10:22:58;;;;;;;0.98;0.90;;;;;;;-145.63;54.74;39436.91;4991459;28;20034;-69
2023/11/13 10:25:39;;;;;;;1.83;0.70;;;;;;;-145.63;54.60;39417.34;4991820;28;20314;-68
2023/11/13 10:28:08;;;;;;;1.60;0.90;;;;;;;-145.63;54.86;39397.78;5002323;28;20122;-68
2023/11/13 10:30:51;;;;;;;1.23;1.00;;;;;;;-145.63;55.53;39413.44;5020657;28;20322;-68
2023/11/13 10:33:18;;;;;;;1.52;1.05;;;;;;;-145.63;54.70;39356.72;4986971;28;20046;-68
2023/11/13 10:35:48;;;;;;;0.95;0.70;;;;;;;-145.63;55.30;39405.59;4994857;28;20030;-68
2023/11/13 10:38:14;;;;;;;1.15;0.80;;;;;;;-145.63;55.13;39329.34;4993621;28;20026;-68
2023/11/13 10:40:43;;;;;;;1.40;1.10;;;;;;;-145.63;55.10;39388.00;5008734;28;20022;-68
2023/11/13 10:43:11;;;;;;;0.77;0.70;;;;;;;-145.63;55.07;39391.91;5025744;28;20026;-68
2023/11/13 10:45:46;;;;;;;0.80;0.80;;;;;;;-145.63;55.73;39409.53;5025721;28;20033;-68
2023/11/13 10:48:13;;;;;;;1.10;0.80;;;;;;;-145.63;56.20;39366.50;5010832;28;20315;-68
2023/11/13 10:50:39;;;;;;;1.15;0.73;;;;;;;-145.63;54.99;39372.34;5004648;28;20109;-67
2023/11/13 10:53:06;;;;;;;0.93;0.80;;;;;;;-145.63;54.10;39368.44;5005999;28;20054;-69
2023/11/13 10:55:32;;;;;;;1.20;0.82;;;;;;;-145.63;55.07;39346.94;5003638;28;20060;-69
2023/11/13 10:57:57;;;;;;;1.95;0.77;;;;;;;-145.63;54.87;39358.66;4986458;28;20030;-67
2023/11/13 11:00:23;;;;;;;3.67;1.00;;;;;;;-145.63;54.00;39372.34;5002299;28;20223;-68
2023/11/13 11:02:53;;;;;;;2.80;0.80;;;;;;;-145.63;54.17;39407.56;5011127;28;20023;-67
2023/11/13 11:05:25;;;;;;;1.08;0.60;;;;;;;-145.63;54.53;39380.19;5004376;28;20030;-67
2023/11/13 11:07:55;;;;;;;0.90;0.70;;;;;;;-145.63;53.75;39399.75;5005383;28;20414;-67
2023/11/13 11:10:24;;;;;;;1.85;0.60;;;;;;;-145.63;53.91;39368.44;5005447;28;20034;-68
2023/11/13 11:13:03;;;;;;;0.80;0.70;;;;;;;-145.63;54.07;39397.78;4986334;28;20039;-68
2023/11/13 11:15:47;;;;;;;1.38;1.10;;;;;;;-145.63;54.55;39438.84;5002636;28;20091;-68
2023/11/13 11:18:32;;;;;;;1.42;0.82;;;;;;;-145.63;54.61;38740.69;5020241;28;20030;-68